Airfield :
LOGIN :

Register | Disclaimer

   EN    FR    IT 

 










Legend :    VFR   Marginal VFR   IFR   Intensive IFR   Very Intensive IFR
Visi :
Ceiling :
>= 8 km
>= 3000ft
5 to 8 km
1000 to 3000 ft
1500m to 5 km
500 to 1000 ft
800 to 1500m
200 to 500 ft
< 800m
< 200 ft
Symbols :   Thunderstorms  Fog  Heavy snow  Heavy precipitations  Wind > 20 kt
SIGMETs :     Misc.  Thunderstorms  Icing  Turbulence  Mountain Waves  Volcanic Ashes






- Airport Elevation : 17 ft
- IATA code : KLR


ESMQ - Kalmar

CURRENT METAR :
  • 281150Z 10006KT 060V130 9999 BKN043 07/03 Q1023

EXPIRED METARs :
  • 281120Z 09005KT 9999 BKN042 07/04 Q1023
  • 281050Z 08006KT 9999 FEW022 SCT040 07/04 Q1023
  • 281020Z 09007KT 9999 SCT035 07/04 Q1024
  • 280950Z 10007KT 9999 FEW033 SCT052 07/04 Q1024
  • 280920Z 10007KT 9999 FEW031 SCT050 07/05 Q1024

TAF TAF ESMQ
Valid from the 28 at 12:00 until the 28 at 20:00 UTC


281130Z 2812/2820 08005KT 9999 SCT040
TEMPO 2812/2814 SHRA SCT015TCU



MET'MAP, your aeronautical weather chart ! - Copyright ORBIFLY December 2007 - Disclaimer

ORBIFLY MET'MAP TEAM :

Programming & Development : Alexandra Zaïnal
Original concept : Baudouin d'Aumeries
Technical & hardware support : Manuel Goepfert
Assistance : Marc-Olivier Méhu




SOURCES & CREDITS :

   NOAA